Terminal Aerodrome Forecast
Issued by NWS Norman, OK

Home | Current Version | Previous Version | Text Only | Print | Product List | Glossary On
Versions: 1 2 3 4 5 6 7 8 9 10 11 12 13 14 15 16 17 18 19 20 21 22 23 24 25 26 27 28 29 30 31 32 33
000
FTUS44 KOUN 040236 AAA
TAFOKC
TAF AMD
KOKC 040236Z 0403/0424 02010KT P6SM SCT030 BKN150
     FM040700 02015G23KT 5SM BR OVC010
      TEMPO 0407/0411 -RA
     FM041100 01020G28KT 2SM -FZRA BR OVC004
     FM041400 01020G28KT 2SM PL OVC004
     FM042200 01018G27KT 1SM -SN OVC003=

USA.gov is the U.S. government's official web portal to all federal, state and local government web resources and services.